createdAt,value
2023-03-10T00:01:31.438Z,23.27
2023-03-10T00:04:02.012Z,23.03
2023-03-10T00:06:34.858Z,22.03
2023-03-10T00:09:04.074Z,20.77
2023-03-10T00:11:32.868Z,21.97
2023-03-10T00:14:01.412Z,21.70
2023-03-10T00:16:31.276Z,19.10
2023-03-10T00:19:00.534Z,21.53
2023-03-10T00:21:31.514Z,18.37
2023-03-10T00:24:00.697Z,18.83
2023-03-10T00:26:30.574Z,18.20
2023-03-10T00:28:59.088Z,16.23
2023-03-10T00:31:31.559Z,18.57
2023-03-10T00:34:00.669Z,16.67
2023-03-10T00:36:31.630Z,13.80
2023-03-10T00:39:02.088Z,14.87
2023-03-10T00:41:35.619Z,15.37
2023-03-10T00:44:04.933Z,13.00
2023-03-10T00:46:34.513Z,14.23
2023-03-10T00:49:03.403Z,12.07
2023-03-10T00:51:31.524Z,14.43
2023-03-10T00:54:02.786Z,12.07
2023-03-10T00:56:32.447Z,11.70
2023-03-10T00:59:02.081Z,14.33
2023-03-10T01:01:33.616Z,14.23
2023-03-10T01:04:07.094Z,7.67
2023-03-10T01:06:36.773Z,10.13
2023-03-10T01:09:06.082Z,9.07
2023-03-10T01:11:35.227Z,6.40
2023-03-10T01:14:07.100Z,12.67
2023-03-10T01:16:35.884Z,7.23
2023-03-10T01:19:03.968Z,8.93
2023-03-10T01:21:37.304Z,10.40
2023-03-10T01:24:06.870Z,8.20
2023-03-10T01:26:35.550Z,8.87
2023-03-10T01:29:04.324Z,11.70
2023-03-10T01:31:32.863Z,12.53
2023-03-10T01:34:01.013Z,10.27
2023-03-10T01:36:29.633Z,11.50
2023-03-10T01:38:58.872Z,7.57
2023-03-10T01:41:27.313Z,6.37
2023-03-10T01:43:57.909Z,7.60
2023-03-10T01:46:33.692Z,5.93
2023-03-10T01:49:26.378Z,7.57
2023-03-10T01:52:38.019Z,6.87
2023-03-10T01:55:15.998Z,7.37
2023-03-10T01:57:50.381Z,5.50
2023-03-10T02:00:19.907Z,7.97
2023-03-10T02:03:11.661Z,12.17
2023-03-10T02:06:21.291Z,7.77
2023-03-10T02:08:54.823Z,4.17
2023-03-10T02:11:23.820Z,5.37
2023-03-10T02:13:52.530Z,6.10
2023-03-10T02:16:21.493Z,6.67
2023-03-10T02:18:50.732Z,7.23
2023-03-10T02:21:44.280Z,4.90
2023-03-10T02:24:36.265Z,8.67
2023-03-10T02:27:27.572Z,7.73
2023-03-10T02:30:26.149Z,8.97
2023-03-10T02:33:05.857Z,4.23
2023-03-10T02:35:34.593Z,4.90
2023-03-10T02:38:02.806Z,4.23
2023-03-10T02:40:46.981Z,3.90
2023-03-10T02:43:15.395Z,6.17
2023-03-10T02:45:47.327Z,5.70
2023-03-10T02:48:30.645Z,7.53
2023-03-10T02:51:02.031Z,4.27
2023-03-10T02:53:32.153Z,7.60
2023-03-10T02:56:00.970Z,6.17
2023-03-10T02:58:32.678Z,8.17
2023-03-10T03:01:01.446Z,7.53
2023-03-10T03:03:30.129Z,3.63
2023-03-10T03:05:58.647Z,6.13
2023-03-10T03:08:27.312Z,6.70
2023-03-10T03:10:55.793Z,5.27
2023-03-10T03:13:23.899Z,6.47
2023-03-10T03:15:52.444Z,6.13
2023-03-10T03:18:20.679Z,9.43
2023-03-10T03:20:49.259Z,6.17
2023-03-10T03:23:17.781Z,8.57
2023-03-10T03:25:46.236Z,3.70
2023-03-10T03:28:15.104Z,3.97
2023-03-10T03:30:46.531Z,4.97
2023-03-10T03:33:14.842Z,5.30
2023-03-10T03:35:45.539Z,4.37
2023-03-10T03:38:14.294Z,9.53
2023-03-10T03:40:44.968Z,5.20
2023-03-10T03:43:14.909Z,3.80
2023-03-10T03:45:43.492Z,7.27
2023-03-10T03:48:14.518Z,4.10
2023-03-10T03:50:43.141Z,4.07
2023-03-10T03:53:11.704Z,4.60
2023-03-10T03:55:40.210Z,5.93
2023-03-10T03:58:08.906Z,4.47
2023-03-10T04:00:39.941Z,6.40
2023-03-10T04:03:08.029Z,5.67
2023-03-10T04:05:36.485Z,4.43
2023-03-10T04:08:05.354Z,5.60
2023-03-10T04:10:34.014Z,8.00
2023-03-10T04:13:02.683Z,3.67
2023-03-10T04:15:31.118Z,5.83
2023-03-10T04:17:59.576Z,3.27
2023-03-10T04:20:28.150Z,5.27
2023-03-10T04:22:56.271Z,3.93
2023-03-10T04:25:24.768Z,5.90
2023-03-10T04:27:53.223Z,4.43
2023-03-10T04:30:23.996Z,7.73
2023-03-10T04:32:52.540Z,4.20
2023-03-10T04:35:20.830Z,5.03
2023-03-10T04:37:49.446Z,2.37
2023-03-10T04:40:18.058Z,2.20
2023-03-10T04:42:46.575Z,2.70
2023-03-10T04:45:15.209Z,3.03
2023-03-10T04:47:43.544Z,2.33
2023-03-10T04:50:17.692Z,4.27
2023-03-10T04:52:47.216Z,3.43
2023-03-10T04:55:15.799Z,4.03
2023-03-10T04:57:43.852Z,4.17
2023-03-10T05:00:13.864Z,4.53
2023-03-10T05:02:42.528Z,2.90
2023-03-10T05:05:11.465Z,5.23
2023-03-10T05:07:39.591Z,3.80
2023-03-10T05:10:08.697Z,2.83
2023-03-10T05:12:36.775Z,3.83
2023-03-10T05:15:05.411Z,2.83
2023-03-10T05:17:33.944Z,2.87
2023-03-10T05:20:02.357Z,1.90
2023-03-10T05:22:31.029Z,5.23
2023-03-10T05:24:59.551Z,3.30
2023-03-10T05:27:28.170Z,2.93
2023-03-10T05:29:56.691Z,2.80
2023-03-10T05:32:25.293Z,4.57
2023-03-10T05:34:53.845Z,2.50
2023-03-10T05:37:22.379Z,2.50
2023-03-10T05:39:50.819Z,2.50
2023-03-10T05:42:19.854Z,4.53
2023-03-10T05:44:48.309Z,3.77
2023-03-10T05:47:19.177Z,4.17
2023-03-10T05:49:47.684Z,3.47
2023-03-10T05:52:16.131Z,5.27
2023-03-10T05:54:44.545Z,3.57
2023-03-10T05:57:14.074Z,2.83
2023-03-10T05:59:42.713Z,3.03
2023-03-10T06:02:11.494Z,3.53
2023-03-10T06:04:40.204Z,3.87
2023-03-10T06:07:08.709Z,2.47
2023-03-10T06:09:37.132Z,4.17
2023-03-10T06:12:05.778Z,4.07
2023-03-10T06:14:34.222Z,4.33
2023-03-10T06:17:02.749Z,2.13
2023-03-10T06:19:31.238Z,2.33
2023-03-10T06:21:59.916Z,3.20
2023-03-10T06:24:30.686Z,2.73
2023-03-10T06:26:59.209Z,4.20
2023-03-10T06:29:27.909Z,2.10
2023-03-10T06:31:56.094Z,1.80
2023-03-10T06:34:24.722Z,4.60
2023-03-10T06:36:53.215Z,1.60
2023-03-10T06:39:21.839Z,1.60
2023-03-10T06:41:50.195Z,1.33
2023-03-10T06:44:19.352Z,1.93
2023-03-10T06:46:48.055Z,2.90
2023-03-10T06:49:16.327Z,1.40
2023-03-10T06:51:44.858Z,1.53
2023-03-10T06:54:13.310Z,1.67
2023-03-10T06:56:41.891Z,3.50
2023-03-10T06:59:10.363Z,1.53
2023-03-10T07:01:38.529Z,2.03
2023-03-10T07:04:07.178Z,1.90
2023-03-10T07:06:35.676Z,2.83
2023-03-10T07:09:04.217Z,1.13
2023-03-10T07:11:33.265Z,2.20
2023-03-10T07:14:01.919Z,1.27
2023-03-10T07:16:30.296Z,2.50
2023-03-10T07:18:58.797Z,1.73
2023-03-10T07:21:26.994Z,2.60
2023-03-10T07:23:55.446Z,1.20
2023-03-10T07:26:23.992Z,1.60
2023-03-10T07:28:52.538Z,1.40
2023-03-10T07:31:21.291Z,4.03
2023-03-10T07:33:50.490Z,1.17
2023-03-10T07:36:20.951Z,1.17
2023-03-10T07:38:50.338Z,3.57
2023-03-10T07:41:21.161Z,2.40
2023-03-10T07:43:53.697Z,1.37
2023-03-10T07:46:22.390Z,2.53
2023-03-10T07:48:52.733Z,1.93
2023-03-10T07:51:21.788Z,2.70
2023-03-10T07:53:49.942Z,1.70
2023-03-10T07:56:18.480Z,1.73
2023-03-10T07:58:47.153Z,1.43
2023-03-10T08:01:22.197Z,0.93
2023-03-10T08:03:50.896Z,2.50
2023-03-10T08:06:28.114Z,3.23
2023-03-10T08:08:57.618Z,1.87
2023-03-10T08:11:27.102Z,2.27
2023-03-10T08:13:55.695Z,0.87
2023-03-10T08:16:25.349Z,1.70
2023-03-10T08:18:54.844Z,0.80
2023-03-10T08:21:23.662Z,1.37
2023-03-10T08:23:52.145Z,1.83
2023-03-10T08:26:21.139Z,1.90
2023-03-10T08:28:50.034Z,1.40
2023-03-10T08:31:21.386Z,0.93
2023-03-10T08:33:50.366Z,1.10
2023-03-10T08:36:22.793Z,0.80
2023-03-10T08:38:53.977Z,3.70
2023-03-10T08:41:24.122Z,2.57
2023-03-10T08:43:54.527Z,2.40
2023-03-10T08:46:27.368Z,1.10
2023-03-10T08:48:56.839Z,1.97
2023-03-10T08:51:26.286Z,1.07
2023-03-10T08:53:57.586Z,0.97
2023-03-10T08:56:26.459Z,2.30
2023-03-10T08:58:58.953Z,0.97
2023-03-10T09:01:32.941Z,1.17
2023-03-10T09:04:03.777Z,0.80
2023-03-10T09:06:32.570Z,0.93
2023-03-10T09:09:00.853Z,1.20
2023-03-10T09:11:32.944Z,1.00
2023-03-10T09:14:02.092Z,1.17
2023-03-10T09:16:31.124Z,0.80
2023-03-10T09:19:00.028Z,1.40
2023-03-10T09:21:33.464Z,3.20
2023-03-10T09:24:02.532Z,1.90
2023-03-10T09:26:31.006Z,4.23
2023-03-10T09:28:59.486Z,1.97
2023-03-10T09:31:33.914Z,1.00
2023-03-10T09:34:02.610Z,2.23
2023-03-10T09:36:31.223Z,3.30
2023-03-10T09:39:00.343Z,1.10
2023-03-10T09:41:40.248Z,1.23
2023-03-10T09:44:32.692Z,2.03
2023-03-10T09:47:16.280Z,1.87
2023-03-10T09:50:13.932Z,1.13
2023-03-10T09:52:53.215Z,1.80
2023-03-10T09:55:47.499Z,2.30
2023-03-10T09:58:42.594Z,4.67
2023-03-10T10:01:26.729Z,1.63
2023-03-10T10:04:19.678Z,2.60
2023-03-10T10:06:51.025Z,0.93
2023-03-10T10:09:22.330Z,1.47
2023-03-10T10:11:50.836Z,2.20
2023-03-10T10:14:30.402Z,3.80
2023-03-10T10:17:58.389Z,1.93
2023-03-10T10:20:41.713Z,3.20
2023-03-10T10:23:50.727Z,3.37
2023-03-10T10:26:29.115Z,2.97
2023-03-10T10:29:07.723Z,3.20
2023-03-10T10:31:36.380Z,1.87
2023-03-10T10:34:23.442Z,3.73
2023-03-10T10:36:57.332Z,1.83
2023-03-10T10:39:42.000Z,2.70
2023-03-10T10:42:31.957Z,1.97
2023-03-10T10:45:15.970Z,2.20
2023-03-10T10:47:52.670Z,1.63
2023-03-10T10:50:21.154Z,2.83
2023-03-10T10:52:55.956Z,1.87
2023-03-10T10:55:34.530Z,1.80
2023-03-10T10:58:07.026Z,1.43
2023-03-10T11:00:39.911Z,2.43
2023-03-10T11:03:41.791Z,2.10
2023-03-10T11:06:32.219Z,1.60
2023-03-10T11:09:14.524Z,1.47
2023-03-10T11:12:20.102Z,2.27
2023-03-10T11:14:52.511Z,1.87
2023-03-10T11:17:49.692Z,2.90
2023-03-10T11:20:35.491Z,1.47
2023-03-10T11:23:20.019Z,1.87
2023-03-10T11:25:53.439Z,2.80
2023-03-10T11:29:25.637Z,4.70
2023-03-10T11:32:28.246Z,1.40
2023-03-10T11:34:58.245Z,2.80
2023-03-10T11:37:39.506Z,2.07
2023-03-10T11:40:32.119Z,2.50
2023-03-10T11:43:43.180Z,2.90
2023-03-10T11:46:47.801Z,0.80
2023-03-10T11:49:24.391Z,1.27
2023-03-10T11:51:58.970Z,2.47
2023-03-10T11:54:39.677Z,1.73
2023-03-10T11:57:33.888Z,1.90
2023-03-10T12:00:07.895Z,2.20
2023-03-10T12:03:00.146Z,2.80
2023-03-10T12:05:29.556Z,1.53
2023-03-10T12:08:05.060Z,3.97
2023-03-10T12:10:40.867Z,2.37
2023-03-10T12:13:24.552Z,2.47
2023-03-10T12:16:00.751Z,2.37
2023-03-10T12:18:29.619Z,1.00
2023-03-10T12:21:31.012Z,1.60
2023-03-10T12:24:02.888Z,3.33
2023-03-10T12:26:40.127Z,0.80
2023-03-10T12:29:36.715Z,2.63
2023-03-10T12:32:05.424Z,2.27
2023-03-10T12:34:34.726Z,2.03
2023-03-10T12:37:12.471Z,7.77
2023-03-10T12:39:44.982Z,1.90
2023-03-10T12:42:33.120Z,2.50
2023-03-10T12:45:28.638Z,2.23
2023-03-10T12:48:11.299Z,2.13
2023-03-10T12:51:17.493Z,2.33
2023-03-10T12:54:07.316Z,1.23
2023-03-10T12:56:43.990Z,0.70
2023-03-10T12:59:20.757Z,2.00
2023-03-10T13:01:55.946Z,2.97
2023-03-10T13:04:26.436Z,1.07
2023-03-10T13:07:04.046Z,2.27
2023-03-10T13:09:41.264Z,0.90
2023-03-10T13:12:43.512Z,4.70
2023-03-10T13:15:39.475Z,0.70
2023-03-10T13:18:23.416Z,1.63
2023-03-10T13:20:51.838Z,3.73
2023-03-10T13:23:40.146Z,1.60
2023-03-10T13:26:16.390Z,1.50
2023-03-10T13:28:57.830Z,1.97
2023-03-10T13:31:34.823Z,2.27
2023-03-10T13:34:21.136Z,1.03
2023-03-10T13:36:49.694Z,1.40
2023-03-10T13:39:27.421Z,1.17
2023-03-10T13:42:00.401Z,2.50
2023-03-10T13:44:40.803Z,2.83
2023-03-10T13:47:20.826Z,2.47
2023-03-10T13:50:00.302Z,1.70
2023-03-10T13:52:32.150Z,1.03
2023-03-10T13:55:13.559Z,6.10
2023-03-10T13:57:42.694Z,1.37
2023-03-10T14:00:24.733Z,1.97
2023-03-10T14:02:54.364Z,4.60
2023-03-10T14:05:45.743Z,1.40
2023-03-10T14:08:32.821Z,1.70
2023-03-10T14:11:46.949Z,1.47
2023-03-10T14:14:38.524Z,2.47
2023-03-10T14:17:33.759Z,2.10
2023-03-10T14:20:02.346Z,1.47
2023-03-10T14:22:41.416Z,0.80
2023-03-10T14:25:19.539Z,1.83
2023-03-10T14:28:12.909Z,0.93
2023-03-10T14:30:44.157Z,0.50
2023-03-10T14:33:17.218Z,1.70
2023-03-10T14:35:46.630Z,1.13
2023-03-10T14:38:14.951Z,0.60
2023-03-10T14:40:53.125Z,0.67
2023-03-10T14:43:27.778Z,0.43
2023-03-10T14:46:00.076Z,0.73
2023-03-10T14:48:31.915Z,0.53
2023-03-10T14:51:00.385Z,0.77
2023-03-10T14:53:31.024Z,1.60
2023-03-10T14:56:03.304Z,1.80
2023-03-10T14:58:46.679Z,1.27
2023-03-10T15:01:15.659Z,1.33
2023-03-10T15:03:45.482Z,0.93
2023-03-10T15:06:19.506Z,1.43
2023-03-10T15:08:48.098Z,0.60
2023-03-10T15:11:24.026Z,1.43
2023-03-10T15:13:59.520Z,0.90
2023-03-10T15:16:27.700Z,0.63
2023-03-10T15:18:55.786Z,2.67
2023-03-10T15:21:24.240Z,0.80
2023-03-10T15:23:52.415Z,2.10
2023-03-10T15:26:20.503Z,3.27
2023-03-10T15:28:48.946Z,2.57
2023-03-10T15:31:17.455Z,1.60
2023-03-10T15:33:45.988Z,1.97
2023-03-10T15:36:14.589Z,4.73
2023-03-10T15:38:43.066Z,1.37
2023-03-10T15:41:13.074Z,1.13
2023-03-10T15:43:41.608Z,1.57
2023-03-10T15:46:10.594Z,0.70
2023-03-10T15:48:38.776Z,1.53
2023-03-10T15:51:15.914Z,2.50
2023-03-10T15:53:45.188Z,1.50
2023-03-10T15:56:14.053Z,1.33
2023-03-10T15:58:42.744Z,2.93
2023-03-10T16:01:18.848Z,1.10
2023-03-10T16:03:48.117Z,2.10
2023-03-10T16:06:16.612Z,0.87
2023-03-10T16:08:44.978Z,1.27
2023-03-10T16:11:22.170Z,1.03
2023-03-10T16:13:50.782Z,1.67
2023-03-10T16:16:23.539Z,1.40
2023-03-10T16:18:52.938Z,0.90
2023-03-10T16:21:21.465Z,2.23
2023-03-10T16:23:50.045Z,1.63
2023-03-10T16:26:24.236Z,1.13
2023-03-10T16:28:55.478Z,2.97
2023-03-10T16:31:27.587Z,2.00
2023-03-10T16:33:57.101Z,1.03
2023-03-10T16:36:29.343Z,0.93
2023-03-10T16:38:58.528Z,2.77
2023-03-10T16:41:29.609Z,2.30
2023-03-10T16:43:58.383Z,2.73
2023-03-10T16:46:32.447Z,1.60
2023-03-10T16:49:03.315Z,1.03
2023-03-10T16:51:38.105Z,1.33
2023-03-10T16:54:23.199Z,1.10
2023-03-10T16:56:57.021Z,1.57
2023-03-10T16:59:26.520Z,1.43
2023-03-10T17:01:54.901Z,2.23
2023-03-10T17:04:23.409Z,2.60
2023-03-10T17:06:52.320Z,1.57
2023-03-10T17:09:21.050Z,2.80
2023-03-10T17:11:55.146Z,1.77
2023-03-10T17:14:24.204Z,1.37
2023-03-10T17:16:52.444Z,1.80
2023-03-10T17:19:27.019Z,3.40
2023-03-10T17:21:55.529Z,2.17
2023-03-10T17:24:24.588Z,1.23
2023-03-10T17:26:53.351Z,2.80
2023-03-10T17:29:21.931Z,1.17
2023-03-10T17:31:51.793Z,1.77
2023-03-10T17:34:21.270Z,1.20
2023-03-10T17:36:52.210Z,1.00
2023-03-10T17:39:23.738Z,1.10
2023-03-10T17:41:52.332Z,1.80
2023-03-10T17:44:20.952Z,1.10
2023-03-10T17:46:50.338Z,1.27
2023-03-10T17:49:19.281Z,1.90
2023-03-10T17:51:47.481Z,4.00
2023-03-10T17:54:20.787Z,1.70
2023-03-10T17:56:50.382Z,2.00
2023-03-10T17:59:19.255Z,1.33
2023-03-10T18:01:49.471Z,1.43
2023-03-10T18:04:18.092Z,1.50
2023-03-10T18:06:46.688Z,1.23
2023-03-10T18:09:15.976Z,1.83
2023-03-10T18:11:44.251Z,1.93
2023-03-10T18:14:14.101Z,2.87
2023-03-10T18:16:42.844Z,2.90
2023-03-10T18:19:12.717Z,2.30
2023-03-10T18:21:41.561Z,1.20
2023-03-10T18:24:13.218Z,2.43
2023-03-10T18:26:43.493Z,2.40
2023-03-10T18:29:12.843Z,2.10
2023-03-10T18:31:41.781Z,3.20
2023-03-10T18:34:11.186Z,1.70
2023-03-10T18:36:39.881Z,2.40
2023-03-10T18:39:08.599Z,3.10
2023-03-10T18:41:37.266Z,2.77
2023-03-10T18:44:06.308Z,1.40
2023-03-10T18:46:34.677Z,1.37
2023-03-10T18:49:03.258Z,2.17
2023-03-10T18:51:31.409Z,2.00
2023-03-10T18:53:59.523Z,2.50
2023-03-10T18:56:29.315Z,1.30
2023-03-10T18:58:57.542Z,1.20
2023-03-10T19:01:26.997Z,1.70
2023-03-10T19:03:55.585Z,1.60
2023-03-10T19:06:24.186Z,1.50
2023-03-10T19:08:53.738Z,1.30
2023-03-10T19:11:24.481Z,2.40
2023-03-10T19:13:53.234Z,2.10
2023-03-10T19:16:22.460Z,1.30
2023-03-10T19:18:51.026Z,1.43
2023-03-10T19:21:21.939Z,0.97
2023-03-10T19:23:51.838Z,1.10
2023-03-10T19:26:20.438Z,1.67
2023-03-10T19:28:48.444Z,1.60
2023-03-10T19:31:17.625Z,1.20
2023-03-10T19:33:46.211Z,1.10
2023-03-10T19:36:15.536Z,0.80
2023-03-10T19:38:45.890Z,0.90
2023-03-10T19:41:19.244Z,1.43
2023-03-10T19:43:50.856Z,1.93
2023-03-10T19:46:20.651Z,1.10
2023-03-10T19:48:49.179Z,1.47
2023-03-10T19:51:28.659Z,0.97
2023-03-10T19:54:02.014Z,1.50
2023-03-10T19:56:31.172Z,1.20
2023-03-10T19:58:59.899Z,1.70
2023-03-10T20:01:29.214Z,1.43
2023-03-10T20:04:03.680Z,1.30
2023-03-10T20:06:32.131Z,1.17
2023-03-10T20:09:00.843Z,1.00
2023-03-10T20:11:29.609Z,1.33
2023-03-10T20:13:58.158Z,0.90
2023-03-10T20:16:27.865Z,0.90
2023-03-10T20:18:56.743Z,1.73
2023-03-10T20:21:25.578Z,0.70
2023-03-10T20:23:55.987Z,0.73
2023-03-10T20:26:24.974Z,0.70
2023-03-10T20:28:53.478Z,0.73
2023-03-10T20:31:24.452Z,0.60
2023-03-10T20:33:53.324Z,3.37
2023-03-10T20:36:21.873Z,1.47
2023-03-10T20:38:50.318Z,0.70
2023-03-10T20:41:20.293Z,1.27
2023-03-10T20:43:48.678Z,1.20
2023-03-10T20:46:19.363Z,0.70
2023-03-10T20:48:51.325Z,0.97
2023-03-10T20:51:19.810Z,0.80
2023-03-10T20:53:48.406Z,0.80
2023-03-10T20:56:16.890Z,1.20
2023-03-10T20:58:45.587Z,0.73
2023-03-10T21:01:22.137Z,2.40
2023-03-10T21:03:54.575Z,0.73
2023-03-10T21:06:24.575Z,1.13
2023-03-10T21:08:53.399Z,1.57
2023-03-10T21:11:21.749Z,0.83
2023-03-10T21:13:51.379Z,0.70
2023-03-10T21:16:20.935Z,0.93
2023-03-10T21:18:49.588Z,1.00
2023-03-10T21:21:17.692Z,0.70
2023-03-10T21:23:46.223Z,0.97
2023-03-10T21:26:18.857Z,0.93
2023-03-10T21:28:47.950Z,1.17
2023-03-10T21:31:16.973Z,1.07
2023-03-10T21:33:46.223Z,0.90
2023-03-10T21:36:24.237Z,0.90
2023-03-10T21:38:53.178Z,1.27
2023-03-10T21:41:28.458Z,0.90
2023-03-10T21:43:58.832Z,0.90
2023-03-10T21:46:27.859Z,1.10
2023-03-10T21:48:56.210Z,0.90
2023-03-10T21:51:26.650Z,1.70
2023-03-10T21:53:55.224Z,1.67
2023-03-10T21:56:28.226Z,1.57
2023-03-10T21:58:57.648Z,1.17
2023-03-10T22:01:26.917Z,1.13
2023-03-10T22:03:55.831Z,1.63
2023-03-10T22:06:24.554Z,1.50
2023-03-10T22:08:53.189Z,1.87
2023-03-10T22:11:21.738Z,1.40
2023-03-10T22:13:50.206Z,1.20
2023-03-10T22:16:19.410Z,1.40
2023-03-10T22:18:49.408Z,1.23
2023-03-10T22:21:18.718Z,1.50
2023-03-10T22:23:47.275Z,1.50
2023-03-10T22:26:15.976Z,1.00
2023-03-10T22:28:44.713Z,1.03
2023-03-10T22:31:13.550Z,0.90
2023-03-10T22:33:42.412Z,2.30
2023-03-10T22:36:14.430Z,1.30
2023-03-10T22:38:42.967Z,1.53
2023-03-10T22:41:14.911Z,1.10
2023-03-10T22:43:43.700Z,1.20
2023-03-10T22:46:17.854Z,1.13
2023-03-10T22:48:46.624Z,2.20
2023-03-10T22:51:19.044Z,1.37
2023-03-10T22:53:48.017Z,1.50
2023-03-10T22:56:17.161Z,1.60
2023-03-10T22:58:45.715Z,1.27
2023-03-10T23:01:14.193Z,1.40
2023-03-10T23:03:43.001Z,1.33
2023-03-10T23:06:14.653Z,1.17
2023-03-10T23:08:43.939Z,1.40
2023-03-10T23:11:16.424Z,1.37
2023-03-10T23:13:44.933Z,1.20
2023-03-10T23:16:14.410Z,1.30
2023-03-10T23:18:42.891Z,1.00
2023-03-10T23:21:11.939Z,2.10
2023-03-10T23:23:43.626Z,0.90
2023-03-10T23:26:15.927Z,1.17
2023-03-10T23:28:44.368Z,0.83
2023-03-10T23:31:15.679Z,1.00
2023-03-10T23:33:45.101Z,1.33
2023-03-10T23:36:14.035Z,1.10
2023-03-10T23:38:43.581Z,1.10
2023-03-10T23:41:18.462Z,1.23
2023-03-10T23:43:47.218Z,1.37
2023-03-10T23:46:18.341Z,1.50
2023-03-10T23:48:46.883Z,1.40
2023-03-10T23:51:17.445Z,1.80
2023-03-10T23:53:48.563Z,1.53
2023-03-10T23:56:17.361Z,1.33
2023-03-10T23:58:45.789Z,1.60
